ATH weather

Eleftherios Venizelos International Airport
Athens, Attica, Greece

Public forecast

Using degrees Celsius for public forecast. Weather courtesy of forecast.io.

METAR (pilot weather report)

Retrieved 2017/10/22 10:20 UTC (27 minutes ago):

LGAV 221020Z 09005KT 040V120 CAVOK 26/13 Q1015 NOSIG

TAF (pilot weather forecast)

Retrieved 2017/10/22 06:12 UTC (5 hours ago):

TAF TAF LGAV 220500Z 2206/2306 VRB03KT 9999 FEW025 BECMG 2300/2302 SCT012